Aviation Digital Data Service (ADDS)

Output produced by METARs form (2325 UTC 29 April 2017)
found at http://aviationweather.gov/adds/metars/
 
KRIC 292321Z 3000/3024 22007KT P6SM BKN250 
     FM301000 21006KT 5SM BR SCT045 
     FM301400 21008KT P6SM SCT250